Terminal Aerodrome Forecast
Issued by NWS Wichita, KS

Home | Current Version | Previous Version | Text Only | Print | Product List | Glossary On
Versions: 1 2 3 4 5 6 7 8 9 10 11 12 13 14 15 16 17 18 19 20 21 22 23 24 25
000
FTUS43 KICT 041125
TAFICT
TAF
KICT 041125Z 0412/0512 02018G27KT 6SM -SN OVC030
      TEMPO 0412/0416 4SM -SN BR OVC016
     FM041800 01015G20KT P6SM SCT030 OVC045
     FM050000 36007KT P6SM SCT100=

USA.gov is the U.S. government's official web portal to all federal, state and local government web resources and services.